Time;durP1;ratioP1;P1;durP2;ratioP2;P2;SDS_P1;SDS_P2;PMS_P1;PMS_P2;Temp;Humidity;BMP_temperature;BMP_pressure;BME280_temperature;BME280_humidity;BME280_pressure;Samples;Min_cycle;Max_cycle;Signal;HPM_P1;HPM_P2
2023/03/25 00:01:07;;;;;;;15.73;7.75;;;410.40;2048.00;;;;;;5099870;28;20026;-76
2023/03/25 00:03:37;;;;;;;17.40;9.20;;;410.40;2048.00;;;;;;5101938;28;20035;-76
2023/03/25 00:06:06;;;;;;;12.52;8.23;;;410.40;2048.00;;;;;;5103461;28;20028;-76
2023/03/25 00:08:31;;;;;;;15.82;8.40;;;410.20;2176.00;;;;;;5098243;28;20071;-76
2023/03/25 00:11:00;;;;;;;14.63;8.73;;;410.30;2150.40;;;;;;5106841;28;20027;-76
2023/03/25 00:13:26;;;;;;;14.70;8.98;;;410.20;2176.00;;;;;;5101301;28;20066;-76
2023/03/25 00:15:57;;;;;;;17.52;8.88;;;409.70;2176.00;;;;;;5097396;27;20059;-76
2023/03/25 00:18:24;;;;;;;29.02;8.23;;;410.00;2201.60;;;;;;5112402;28;20063;-76
2023/03/25 00:20:51;;;;;;;11.68;7.88;;;410.00;2201.60;;;;;;5105369;28;20016;-76
2023/03/25 00:23:19;;;;;;;13.60;7.93;;;410.00;2201.60;;;;;;5107608;27;20031;-75
2023/03/25 00:25:45;;;;;;;14.35;7.95;;;410.00;2150.40;;;;;;5101431;28;20061;-76
2023/03/25 00:28:12;;;;;;;13.77;8.00;;;410.00;2124.80;;;;;;5104594;28;20024;-76
2023/03/25 00:30:38;;;;;;;12.50;7.25;;;409.90;2124.80;;;;;;5103700;28;20031;-76
2023/03/25 00:33:04;;;;;;;14.32;7.25;;;409.60;2124.80;;;;;;5101567;28;20020;-76
2023/03/25 00:35:31;;;;;;;13.88;7.32;;;409.80;2124.80;;;;;;5099993;28;20397;-76
2023/03/25 00:38:01;;;;;;;10.32;6.50;;;409.70;2150.40;;;;;;5110072;28;20439;-76
2023/03/25 00:40:29;;;;;;;11.20;6.32;;;409.70;2150.40;;;;;;5107978;28;20031;-76
2023/03/25 00:42:55;;;;;;;14.23;7.40;;;409.80;2124.80;;;;;;5098624;28;20039;-76
2023/03/25 00:45:21;;;;;;;14.80;5.70;;;409.80;2176.00;;;;;;5100398;28;20032;-76
2023/03/25 00:47:47;;;;;;;17.63;7.55;;;409.80;2201.60;;;;;;5100726;28;20026;-76
2023/03/25 00:50:13;;;;;;;15.55;7.30;;;409.90;2150.40;;;;;;5103574;28;20028;-76
2023/03/25 00:52:39;;;;;;;13.00;8.40;;;409.90;2048.00;;;;;;5106692;28;20077;-76
2023/03/25 00:55:05;;;;;;;14.05;7.82;;;410.20;2022.40;;;;;;5100483;28;20035;-76
2023/03/25 00:57:31;;;;;;;14.57;6.60;;;410.00;2022.40;;;;;;5100489;28;20527;-76
2023/03/25 00:59:57;;;;;;;11.32;6.57;;;410.00;1996.80;;;;;;5107961;28;20021;-75
2023/03/25 01:02:23;;;;;;;10.45;6.55;;;410.00;1996.80;;;;;;5101137;28;20136;-76
2023/03/25 01:04:49;;;;;;;11.02;6.65;;;410.00;1996.80;;;;;;5107002;28;20032;-77
2023/03/25 01:07:16;;;;;;;15.20;7.13;;;410.00;2048.00;;;;;;5107296;28;20028;-77
2023/03/25 01:09:44;;;;;;;15.70;7.75;;;409.90;2124.80;;;;;;5104957;28;20036;-76
2023/03/25 01:12:09;;;;;;;12.80;7.50;;;409.90;2176.00;;;;;;5112170;28;20023;-77
2023/03/25 01:14:35;;;;;;;11.15;6.60;;;409.80;2176.00;;;;;;5112579;28;20536;-76
2023/03/25 01:17:01;;;;;;;13.95;7.15;;;409.90;2150.40;;;;;;5112554;28;20022;-76
2023/03/25 01:19:27;;;;;;;11.52;7.38;;;409.90;2048.00;;;;;;5113984;28;20059;-76
2023/03/25 01:21:52;;;;;;;13.25;7.78;;;409.70;2150.40;;;;;;5112460;28;20354;-77
2023/03/25 01:24:18;;;;;;;16.80;8.32;;;409.70;2176.00;;;;;;5112583;28;20032;-77
2023/03/25 01:26:47;;;;;;;10.65;6.72;;;409.70;2201.60;;;;;;5112040;28;20499;-76
2023/03/25 01:29:16;;;;;;;19.38;5.90;;;409.60;2201.60;;;;;;5113732;28;20028;-76
2023/03/25 01:31:42;;;;;;;22.88;6.75;;;384.90;2252.80;;;;;;5112683;28;20023;-77
2023/03/25 01:34:08;;;;;;;14.30;6.28;;;384.90;2252.80;;;;;;5112084;28;20489;-76
2023/03/25 01:36:36;;;;;;;10.20;6.18;;;384.90;2329.60;;;;;;5112674;28;20126;-76
2023/03/25 01:39:04;;;;;;;13.52;7.38;;;384.80;2329.60;;;;;;5113590;28;20523;-76
2023/03/25 01:41:32;;;;;;;14.52;8.10;;;384.70;2329.60;;;;;;5112546;28;20469;-76
2023/03/25 01:44:14;;;;;;;14.95;7.82;;;384.60;2329.60;;;;;;5113312;28;20032;-76
2023/03/25 01:46:44;;;;;;;13.57;7.47;;;384.70;2329.60;;;;;;5112403;28;20038;-78
2023/03/25 01:49:17;;;;;;;13.85;6.95;;;384.90;2329.60;;;;;;5112446;28;20477;-77
2023/03/25 01:51:45;;;;;;;9.95;5.85;;;409.60;2176.00;;;;;;5112218;28;20042;-76
2023/03/25 01:54:16;;;;;;;15.05;6.22;;;409.70;2073.60;;;;;;5112722;28;20026;-77
2023/03/25 01:56:46;;;;;;;14.57;6.13;;;409.80;2048.00;;;;;;5113550;28;20023;-78
2023/03/25 01:59:14;;;;;;;8.23;4.97;;;409.90;1996.80;;;;;;5111843;28;20334;-77
2023/03/25 02:01:44;;;;;;;8.30;5.07;;;410.00;1971.20;;;;;;5113696;28;20023;-77
2023/03/25 02:04:11;;;;;;;9.65;5.57;;;410.10;1971.20;;;;;;5112127;28;20036;-78
2023/03/25 02:06:41;;;;;;;8.80;4.72;;;410.10;1971.20;;;;;;5114820;28;20028;-76
2023/03/25 02:09:10;;;;;;;9.13;5.10;;;410.20;1945.60;;;;;;5116752;28;20024;-76
2023/03/25 02:11:37;;;;;;;9.23;5.30;;;410.20;1945.60;;;;;;5116070;28;20034;-76
2023/03/25 02:14:11;;;;;;;7.93;5.03;;;410.20;1971.20;;;;;;5115987;28;20061;-77
2023/03/25 02:17:09;;;;;;;9.98;5.50;;;410.30;1945.60;;;;;;5117253;28;20024;-76
2023/03/25 02:20:07;;;;;;;9.60;5.53;;;410.20;1945.60;;;;;;5115788;28;20057;-76
2023/03/25 02:23:10;;;;;;;9.57;5.75;;;410.20;1920.00;;;;;;5116004;28;20066;-77
2023/03/25 02:25:55;;;;;;;12.55;5.40;;;410.20;1945.60;;;;;;5115847;28;20115;-76
2023/03/25 02:28:29;;;;;;;10.25;5.63;;;410.20;1971.20;;;;;;5115828;28;20019;-76
2023/03/25 02:31:00;;;;;;;10.52;5.47;;;410.20;1996.80;;;;;;5115618;28;20161;-76
2023/03/25 02:33:39;;;;;;;8.80;5.15;;;410.20;2022.40;;;;;;5115314;28;20069;-76
2023/03/25 02:36:36;;;;;;;18.73;5.50;;;410.20;2048.00;;;;;;5115689;28;20085;-76
2023/03/25 02:39:13;;;;;;;10.93;5.40;;;410.30;2048.00;;;;;;5116919;28;20027;-76
2023/03/25 02:41:47;;;;;;;9.70;5.60;;;410.20;2124.80;;;;;;5115499;28;20054;-77
2023/03/25 02:44:35;;;;;;;10.30;5.35;;;410.20;2022.40;;;;;;5116729;28;20110;-78
2023/03/25 02:47:06;;;;;;;8.98;6.03;;;410.30;1996.80;;;;;;5114909;28;20027;-77
2023/03/25 02:49:39;;;;;;;10.05;5.18;;;410.30;1996.80;;;;;;5115264;28;20020;-76
2023/03/25 02:52:36;;;;;;;8.10;4.88;;;410.30;1971.20;;;;;;5114830;28;20266;-76
2023/03/25 02:55:09;;;;;;;;;;;410.30;1971.20;;;;;;5116994;28;20026;-76
2023/03/25 02:57:38;;;;;;;8.98;5.10;;;410.20;1996.80;;;;;;5116569;28;19904;-78
2023/03/25 03:00:14;;;;;;;8.60;4.85;;;410.20;2022.40;;;;;;5114756;28;20059;-77
2023/03/25 03:02:45;;;;;;;11.23;5.68;;;410.20;2048.00;;;;;;5116194;28;20486;-76
2023/03/25 03:05:27;;;;;;;10.48;5.25;;;410.20;2048.00;;;;;;5116345;28;20485;-76
2023/03/25 03:08:26;;;;;;;9.85;5.35;;;410.20;2073.60;;;;;;5116297;28;20027;-77
2023/03/25 03:11:12;;;;;;;8.88;5.15;;;410.10;2124.80;;;;;;5115040;28;20024;-76
2023/03/25 03:13:43;;;;;;;8.98;5.60;;;410.10;2124.80;;;;;;5114909;28;20024;-76
2023/03/25 03:16:20;;;;;;;8.10;4.50;;;410.20;2073.60;;;;;;5114541;28;20027;-78
2023/03/25 03:19:07;;;;;;;8.73;4.30;;;410.20;2073.60;;;;;;5114873;28;20480;-77
2023/03/25 03:21:45;;;;;;;9.88;4.85;;;410.20;2048.00;;;;;;5114707;28;20050;-75
2023/03/25 03:24:31;;;;;;;8.60;4.82;;;410.10;2048.00;;;;;;5114703;28;20415;-76
2023/03/25 03:27:55;;;;;;;7.07;4.78;;;410.00;2048.00;;;;;;5114368;28;20053;-76
2023/03/25 03:30:41;;;;;;;8.70;5.55;;;410.00;2048.00;;;;;;5053092;28;20033;-77
2023/03/25 03:33:20;;;;;;;9.23;4.67;;;410.00;2073.60;;;;;;5052111;28;20045;-76
2023/03/25 03:36:00;;;;;;;10.23;3.88;;;410.00;2099.20;;;;;;5052791;28;20273;-76
2023/03/25 03:38:31;;;;;;;6.97;3.90;;;410.00;2099.20;;;;;;5036400;28;20466;-76
2023/03/25 03:41:00;;;;;;;10.30;4.30;;;410.00;2099.20;;;;;;5036119;28;20040;-76
2023/03/25 03:43:32;;;;;;;6.63;4.15;;;410.20;2099.20;;;;;;5036158;28;20040;-76
2023/03/25 03:46:05;;;;;;;7.82;4.18;;;410.20;2099.20;;;;;;5035728;28;20033;-76
2023/03/25 03:48:39;;;;;;;5.07;4.05;;;410.20;2099.20;;;;;;5052741;28;20175;-76
2023/03/25 03:51:17;;;;;;;8.63;4.53;;;410.20;2124.80;;;;;;5052622;28;20031;-76
2023/03/25 03:53:57;;;;;;;6.53;4.15;;;410.00;2176.00;;;;;;5035948;28;20025;-76
2023/03/25 03:56:35;;;;;;;8.30;3.80;;;410.00;2176.00;;;;;;5052504;28;20021;-76
2023/03/25 03:59:07;;;;;;;6.60;3.63;;;410.00;2150.40;;;;;;5035840;28;20057;-78
2023/03/25 04:01:52;;;;;;;13.85;4.22;;;410.10;2099.20;;;;;;5088821;28;20503;-77
2023/03/25 04:04:25;;;;;;;7.18;4.65;;;410.10;2073.60;;;;;;5112983;28;20523;-77
2023/03/25 04:07:13;;;;;;;5.95;3.42;;;410.20;2073.60;;;;;;5113193;28;20498;-77
2023/03/25 04:09:43;;;;;;;11.07;4.30;;;410.10;2073.60;;;;;;5112907;28;20035;-76
2023/03/25 04:12:25;;;;;;;7.85;3.58;;;410.10;2048.00;;;;;;5113129;28;20030;-77
2023/03/25 04:14:52;;;;;;;6.88;3.88;;;410.10;2022.40;;;;;;5112953;28;20024;-78
2023/03/25 04:17:18;;;;;;;6.82;3.70;;;410.10;2022.40;;;;;;5112916;28;20480;-77
2023/03/25 04:19:47;;;;;;;8.00;4.57;;;410.10;1996.80;;;;;;5112897;28;20028;-77
2023/03/25 04:22:16;;;;;;;7.10;4.20;;;410.00;2022.40;;;;;;5112818;28;20031;-77
2023/03/25 04:24:42;;;;;;;7.60;3.95;;;410.00;2022.40;;;;;;5112766;28;20087;-76
2023/03/25 04:27:12;;;;;;;8.05;4.32;;;410.00;2022.40;;;;;;5112940;28;20076;-77
2023/03/25 04:29:39;;;;;;;9.68;4.93;;;410.00;2022.40;;;;;;5112228;28;20392;-76
2023/03/25 04:32:05;;;;;;;10.68;5.82;;;410.00;2048.00;;;;;;5112575;28;20485;-76
2023/03/25 04:34:31;;;;;;;11.18;6.05;;;410.00;2073.60;;;;;;5112385;28;20108;-76
2023/03/25 04:36:57;;;;;;;9.00;5.45;;;409.90;2099.20;;;;;;5112475;28;20015;-78
2023/03/25 04:39:24;;;;;;;8.50;4.82;;;409.90;2124.80;;;;;;5112361;28;20473;-76
2023/03/25 04:41:52;;;;;;;7.28;5.05;;;409.80;2176.00;;;;;;5112510;28;20045;-76
2023/03/25 04:44:20;;;;;;;10.63;4.43;;;409.90;2201.60;;;;;;5112531;28;20063;-76
2023/03/25 04:46:47;;;;;;;8.23;4.43;;;409.90;2227.20;;;;;;5112507;28;20481;-76
2023/03/25 04:49:21;;;;;;;8.35;4.00;;;410.00;2227.20;;;;;;5112487;28;20485;-76
2023/03/25 04:51:50;;;;;;;9.45;4.40;;;410.00;2201.60;;;;;;5112200;28;20019;-76
2023/03/25 04:54:17;;;;;;;9.95;4.60;;;410.00;2201.60;;;;;;5112504;28;20032;-77
2023/03/25 04:56:43;;;;;;;7.68;4.20;;;410.00;2176.00;;;;;;5115282;28;20381;-77
2023/03/25 04:59:09;;;;;;;6.85;4.05;;;410.00;2176.00;;;;;;5115351;28;20020;-76
2023/03/25 05:01:40;;;;;;;10.00;4.65;;;410.00;2176.00;;;;;;5113005;28;20038;-77
2023/03/25 05:04:11;;;;;;;10.13;4.40;;;410.00;2201.60;;;;;;5111962;28;20055;-77
2023/03/25 05:06:38;;;;;;;10.38;4.47;;;410.00;2252.80;;;;;;5113484;28;20023;-77
2023/03/25 05:09:06;;;;;;;8.75;4.45;;;410.00;2252.80;;;;;;5112310;28;20026;-78
2023/03/25 05:11:34;;;;;;;11.35;4.93;;;410.00;2278.40;;;;;;5112131;28;20044;-76
2023/03/25 05:14:00;;;;;;;16.08;4.90;;;409.90;2304.00;;;;;;5111982;28;20034;-77
2023/03/25 05:16:26;;;;;;;9.75;5.45;;;409.80;2355.20;;;;;;5111795;28;20048;-76
2023/03/25 05:18:51;;;;;;;7.22;4.30;;;409.90;2355.20;;;;;;5113145;28;20590;-75
2023/03/25 05:21:17;;;;;;;20.42;8.68;;;409.90;2355.20;;;;;;5111981;28;20473;-77
2023/03/25 05:23:43;;;;;;;32.15;18.63;;;409.90;2355.20;;;;;;5113285;28;20025;-77
2023/03/25 05:26:11;;;;;;;15.27;8.48;;;409.80;2355.20;;;;;;5111868;28;20473;-77
2023/03/25 05:28:37;;;;;;;7.80;4.88;;;409.80;2355.20;;;;;;5111949;28;20023;-77
2023/03/25 05:31:07;;;;;;;9.25;4.68;;;409.80;2304.00;;;;;;5111439;28;20059;-77
2023/03/25 05:33:35;;;;;;;10.48;4.35;;;409.90;2278.40;;;;;;5103174;28;20092;-77
2023/03/25 05:36:02;;;;;;;7.13;4.05;;;409.90;2252.80;;;;;;5111645;28;20031;-76
2023/03/25 05:38:28;;;;;;;6.25;3.65;;;410.00;2252.80;;;;;;5112945;28;20176;-76
2023/03/25 05:40:55;;;;;;;7.28;3.65;;;410.00;2227.20;;;;;;5114112;28;20552;-77
2023/03/25 05:43:21;;;;;;;7.82;3.13;;;410.20;2150.40;;;;;;5117324;28;20038;-76
2023/03/25 05:45:48;;;;;;;7.35;4.05;;;410.30;2150.40;;;;;;5115958;28;20114;-76
2023/03/25 05:48:14;;;;;;;5.63;3.15;;;410.50;2099.20;;;;;;5115968;28;20051;-76
2023/03/25 05:50:43;;;;;;;7.00;3.30;;;435.20;2073.60;;;;;;5116134;28;20477;-77
2023/03/25 05:53:14;;;;;;;7.80;3.08;;;435.30;2073.60;;;;;;5115840;28;20119;-77
2023/03/25 05:55:40;;;;;;;8.30;3.47;;;435.30;2073.60;;;;;;5115758;28;20011;-77
2023/03/25 05:58:05;;;;;;;5.32;3.50;;;435.40;2073.60;;;;;;5117066;28;20019;-77
2023/03/25 06:00:31;;;;;;;5.97;3.05;;;435.40;2073.60;;;;;;5115487;28;20380;-76
2023/03/25 06:03:00;;;;;;;5.47;3.60;;;435.40;2048.00;;;;;;5104207;28;20039;-75
2023/03/25 06:05:28;;;;;;;6.85;3.70;;;435.50;2022.40;;;;;;5105227;28;20047;-76
2023/03/25 06:07:55;;;;;;;5.18;3.50;;;435.50;2073.60;;;;;;5115488;28;20057;-75
2023/03/25 06:10:21;;;;;;;9.70;3.53;;;435.50;2124.80;;;;;;5109880;28;20031;-75
2023/03/25 06:12:48;;;;;;;8.07;4.47;;;435.50;2099.20;;;;;;5104787;28;20028;-75
2023/03/25 06:15:27;;;;;;;5.57;3.38;;;435.50;2124.80;;;;;;5108349;28;20039;-75
2023/03/25 06:17:56;;;;;;;9.43;3.75;;;435.40;2150.40;;;;;;5100467;28;20051;-78
2023/03/25 06:20:22;;;;;;;7.03;4.10;;;435.40;2124.80;;;;;;5104497;28;20035;-78
2023/03/25 06:22:48;;;;;;;9.70;4.38;;;435.30;2150.40;;;;;;5106528;28;20031;-77
2023/03/25 06:25:20;;;;;;;9.85;3.80;;;435.30;2227.20;;;;;;5102169;28;20119;-75
2023/03/25 06:27:48;;;;;;;6.95;3.60;;;435.30;2252.80;;;;;;5107620;28;20035;-75
2023/03/25 06:30:16;;;;;;;6.22;3.63;;;435.30;2252.80;;;;;;5096503;28;20107;-75
2023/03/25 06:32:42;;;;;;;7.35;3.97;;;435.20;2304.00;;;;;;5100339;28;20103;-75
2023/03/25 06:35:10;;;;;;;10.43;3.95;;;435.20;2329.60;;;;;;5105431;28;20140;-75
2023/03/25 06:37:36;;;;;;;9.88;4.10;;;435.20;2355.20;;;;;;5103422;28;20024;-76
2023/03/25 06:40:04;;;;;;;8.82;4.40;;;435.20;2355.20;;;;;;5108829;28;20114;-77
2023/03/25 06:42:29;;;;;;;8.55;4.20;;;410.50;2355.20;;;;;;5111386;28;20118;-75
2023/03/25 06:44:55;;;;;;;11.57;4.05;;;410.50;2355.20;;;;;;5102348;28;20139;-77
2023/03/25 06:47:21;;;;;;;6.55;4.00;;;410.40;2355.20;;;;;;5099362;28;20020;-78
2023/03/25 06:49:47;;;;;;;8.32;4.40;;;410.50;2355.20;;;;;;5102015;28;20032;-75
2023/03/25 06:52:13;;;;;;;5.82;3.78;;;410.50;2355.20;;;;;;5096904;28;20020;-75
2023/03/25 06:54:40;;;;;;;8.73;4.32;;;410.50;2355.20;;;;;;5105429;28;20077;-76
2023/03/25 06:57:06;;;;;;;7.55;3.92;;;410.50;2355.20;;;;;;5105152;28;20023;-76
2023/03/25 06:59:32;;;;;;;7.50;3.90;;;410.50;2355.20;;;;;;5105559;28;20032;-75
2023/03/25 07:01:58;;;;;;;8.57;4.13;;;410.50;2355.20;;;;;;5103121;28;20032;-75
2023/03/25 07:04:24;;;;;;;7.78;4.18;;;435.20;2355.20;;;;;;5106712;28;20044;-75
2023/03/25 07:06:49;;;;;;;8.57;4.47;;;435.20;2355.20;;;;;;5108524;28;20500;-79
2023/03/25 07:09:15;;;;;;;10.27;5.18;;;435.20;2355.20;;;;;;5106140;28;20050;-76
2023/03/25 07:11:42;;;;;;;7.07;4.13;;;435.20;2355.20;;;;;;5096836;28;20024;-77
2023/03/25 07:14:08;;;;;;;9.52;4.88;;;435.20;2355.20;;;;;;5107416;28;20481;-79
2023/03/25 07:16:34;;;;;;;7.30;4.43;;;435.20;2355.20;;;;;;5103948;28;20024;-78
2023/03/25 07:18:59;;;;;;;10.65;4.35;;;435.20;2355.20;;;;;;5101784;28;20036;-75
2023/03/25 07:21:26;;;;;;;6.07;4.70;;;435.20;2355.20;;;;;;5101326;28;20049;-76
2023/03/25 07:23:51;;;;;;;5.72;4.63;;;435.20;2355.20;;;;;;5097995;28;20115;-78
2023/03/25 07:26:17;;;;;;;8.90;4.82;;;410.50;2355.20;;;;;;5107037;28;20134;-77
2023/03/25 07:28:44;;;;;;;10.00;4.90;;;435.20;2355.20;;;;;;5100122;28;20024;-77
2023/03/25 07:31:12;;;;;;;8.07;5.07;;;435.20;2355.20;;;;;;5110273;28;20072;-76
2023/03/25 07:33:38;;;;;;;8.15;4.35;;;435.30;2355.20;;;;;;5111117;28;20497;-77
2023/03/25 07:36:06;;;;;;;8.15;4.43;;;435.30;2355.20;;;;;;5099412;28;20032;-79
2023/03/25 07:38:32;;;;;;;8.98;5.00;;;435.30;2355.20;;;;;;5104047;28;20069;-77
2023/03/25 07:40:58;;;;;;;9.82;4.80;;;435.30;2355.20;;;;;;5106199;28;20031;-82
2023/03/25 07:43:24;;;;;;;6.40;4.97;;;435.30;2355.20;;;;;;5101486;28;20028;-78
2023/03/25 07:45:49;;;;;;;6.72;4.50;;;435.30;2355.20;;;;;;5099703;28;20028;-78
2023/03/25 07:48:15;;;;;;;6.82;4.43;;;435.30;2355.20;;;;;;5108264;28;20028;-85
2023/03/25 07:50:42;;;;;;;10.98;4.18;;;435.20;2355.20;;;;;;5105232;28;20036;-77
2023/03/25 07:53:09;;;;;;;6.25;4.28;;;435.20;2355.20;;;;;;5099047;28;20028;-76
2023/03/25 07:55:35;;;;;;;6.50;4.43;;;435.30;2355.20;;;;;;5108338;28;20039;-78
2023/03/25 07:58:01;;;;;;;8.25;4.13;;;435.20;2355.20;;;;;;5110716;28;20381;-78
2023/03/25 08:00:29;;;;;;;7.50;3.80;;;435.20;2355.20;;;;;;5111296;28;20047;-82
2023/03/25 08:02:55;;;;;;;7.20;4.05;;;435.30;2355.20;;;;;;5110166;28;20082;-89
2023/03/25 08:05:21;;;;;;;4.60;2.72;;;435.50;2355.20;;;;;;5104335;28;20034;-86
2023/03/25 08:07:49;;;;;;;4.05;2.65;;;435.50;2355.20;;;;;;5106649;28;20035;-82
2023/03/25 08:10:15;;;;;;;4.72;2.75;;;435.50;2355.20;;;;;;5101723;28;20028;-82
2023/03/25 08:12:42;;;;;;;6.82;2.45;;;435.30;2355.20;;;;;;5103471;28;20020;-87
2023/03/25 08:15:08;;;;;;;7.03;2.53;;;435.60;2355.20;;;;;;5099050;28;20043;-82
2023/03/25 08:17:34;;;;;;;4.90;2.35;;;435.70;2355.20;;;;;;5100932;28;20028;-81
2023/03/25 08:20:01;;;;;;;6.15;2.17;;;435.70;2355.20;;;;;;5104555;28;20089;-89
2023/03/25 08:22:26;;;;;;;4.82;2.30;;;435.80;2355.20;;;;;;5107822;28;20111;-83
2023/03/25 08:24:52;;;;;;;3.80;2.50;;;435.90;2355.20;;;;;;5102269;28;20126;-80
2023/03/25 08:27:18;;;;;;;3.65;2.20;;;436.10;2355.20;;;;;;5102966;28;20036;-81
2023/03/25 08:29:56;;;;;;;10.82;2.22;;;460.90;2380.80;;;;;;5101759;28;20032;-82
2023/03/25 08:32:23;;;;;;;2.95;1.98;;;460.90;2380.80;;;;;;5095779;28;20023;-82
2023/03/25 08:34:49;;;;;;;9.02;3.00;;;436.10;2355.20;;;;;;5101538;28;20050;-77
2023/03/25 08:37:14;;;;;;;4.90;2.88;;;435.90;2355.20;;;;;;5095507;28;20024;-80
2023/03/25 08:39:43;;;;;;;5.13;2.20;;;435.90;2355.20;;;;;;5107563;28;20027;-77
2023/03/25 08:42:13;;;;;;;2.97;1.77;;;435.90;2355.20;;;;;;5099223;28;20105;-79
2023/03/25 08:44:39;;;;;;;4.32;2.05;;;435.70;2355.20;;;;;;5115405;28;20378;-79
2023/03/25 08:47:05;;;;;;;2.92;1.80;;;435.70;2355.20;;;;;;5113063;27;20027;-78
2023/03/25 08:49:30;;;;;;;3.95;1.75;;;435.50;2355.20;;;;;;5107907;28;20055;-79
2023/03/25 08:51:57;;;;;;;4.00;1.67;;;435.20;2355.20;;;;;;5101558;28;20485;-83
2023/03/25 08:54:28;;;;;;;6.25;2.00;;;410.10;2355.20;;;;;;5106148;28;20501;-78
2023/03/25 08:56:54;;;;;;;7.38;2.28;;;410.10;2355.20;;;;;;5100727;28;20047;-79
2023/03/25 08:59:20;;;;;;;4.40;2.05;;;410.30;2355.20;;;;;;5098311;28;20549;-79
2023/03/25 09:01:46;;;;;;;5.07;2.55;;;410.50;2355.20;;;;;;5095221;28;20027;-80
2023/03/25 09:04:12;;;;;;;4.38;2.38;;;410.40;2355.20;;;;;;5100895;28;20036;-80
2023/03/25 09:06:38;;;;;;;4.38;2.25;;;410.40;2355.20;;;;;;5106996;28;20504;-78
2023/03/25 09:09:04;;;;;;;3.35;1.88;;;410.40;2355.20;;;;;;5101569;28;20028;-79
2023/03/25 09:11:31;;;;;;;5.07;1.95;;;410.40;2355.20;;;;;;5092461;28;20099;-79
2023/03/25 09:13:57;;;;;;;3.80;2.45;;;410.30;2355.20;;;;;;5104386;28;20066;-80
2023/03/25 09:16:23;;;;;;;8.68;3.28;;;410.30;2355.20;;;;;;5108677;28;20028;-79
2023/03/25 09:18:49;;;;;;;3.80;2.10;;;410.40;2355.20;;;;;;5102994;28;20089;-83
2023/03/25 09:21:14;;;;;;;5.53;1.88;;;410.40;2355.20;;;;;;5098328;28;20024;-85
2023/03/25 09:23:40;;;;;;;4.00;1.75;;;410.40;2355.20;;;;;;5106960;28;20476;-81
2023/03/25 09:26:06;;;;;;;3.22;1.65;;;410.40;2355.20;;;;;;5102865;28;20052;-80
2023/03/25 09:28:32;;;;;;;2.97;1.65;;;410.40;2355.20;;;;;;5101537;28;20386;-78
2023/03/25 09:30:58;;;;;;;3.65;1.65;;;410.30;2355.20;;;;;;5107324;28;20031;-78
2023/03/25 09:33:26;;;;;;;5.13;1.80;;;410.30;2355.20;;;;;;5103419;28;20505;-81
2023/03/25 09:35:53;;;;;;;4.65;2.47;;;410.30;2355.20;;;;;;5107786;28;20052;-81
2023/03/25 09:38:19;;;;;;;4.20;2.08;;;410.30;2355.20;;;;;;5101401;28;20020;-80
2023/03/25 09:40:45;;;;;;;4.18;1.73;;;410.30;2355.20;;;;;;5098483;28;20040;-81
2023/03/25 09:43:44;;;;;;;2.83;1.58;;;410.20;2355.20;;;;;;5104510;28;20064;-82
2023/03/25 09:46:10;;;;;;;3.50;2.22;;;410.20;2355.20;;;;;;5103785;28;20042;-79
2023/03/25 09:48:37;;;;;;;3.40;1.50;;;410.20;2355.20;;;;;;5101457;28;20477;-82
2023/03/25 09:51:14;;;;;;;3.30;1.58;;;410.30;2355.20;;;;;;5117498;28;20032;-81
2023/03/25 09:54:01;;;;;;;3.28;1.90;;;410.30;2355.20;;;;;;5110890;28;20077;-80
2023/03/25 09:56:29;;;;;;;9.30;2.08;;;410.50;2355.20;;;;;;5095303;28;20028;-78
2023/03/25 09:59:04;;;;;;;3.10;1.50;;;435.20;2355.20;;;;;;5097388;28;20052;-79
2023/03/25 10:01:42;;;;;;;6.60;2.45;;;435.20;2355.20;;;;;;5104155;28;20036;-79
2023/03/25 10:04:17;;;;;;;10.02;5.03;;;435.20;2355.20;;;;;;5104597;28;20127;-79
2023/03/25 10:07:12;;;;;;;6.70;2.85;;;435.30;2355.20;;;;;;5105042;28;20036;-83
2023/03/25 10:09:47;;;;;;;5.40;1.80;;;435.70;2355.20;;;;;;5100787;28;20047;-79
2023/03/25 10:12:24;;;;;;;6.40;3.08;;;460.80;2380.80;;;;;;5103838;28;20058;-82
2023/03/25 10:15:21;;;;;;;6.65;1.35;;;461.20;2380.80;;;;;;5099706;28;20038;-76
2023/03/25 10:18:02;;;;;;;3.25;1.90;;;461.20;2380.80;;;;;;5095439;28;20105;-76
2023/03/25 10:20:49;;;;;;;4.43;1.67;;;461.20;2355.20;;;;;;5118576;28;20505;-83
2023/03/25 10:23:50;;;;;;;4.57;1.77;;;461.50;2380.80;;;;;;5096315;28;20127;-79
2023/03/25 10:26:24;;;;;;;3.50;2.28;;;461.50;2380.80;;;;;;5049646;28;20032;-78
2023/03/25 10:29:03;;;;;;;5.38;1.77;;;486.70;2355.20;;;;;;5056603;28;20041;-86
2023/03/25 10:31:37;;;;;;;2.60;1.20;;;487.10;2022.40;;;;;;5049952;28;20032;-86
2023/03/25 10:34:14;;;;;;;4.40;1.95;;;487.30;1945.60;;;;;;5044689;28;20147;-82
2023/03/25 10:36:50;;;;;;;3.67;2.25;;;512.40;1894.40;;;;;;5044355;28;20057;-86
2023/03/25 10:39:20;;;;;;;;;;;512.80;1920.00;;;;;;5061631;28;20031;-84
2023/03/25 10:41:57;;;;;;;5.78;3.33;;;537.60;1843.20;;;;;;5046545;28;20003;-85
2023/03/25 10:44:26;;;;;;;3.60;2.20;;;512.90;1766.40;;;;;;5056111;28;20041;-88
2023/03/25 10:47:02;;;;;;;4.93;2.13;;;512.90;1792.00;;;;;;5052183;28;20033;-81
2023/03/25 10:49:30;;;;;;;2.30;1.08;;;537.70;1792.00;;;;;;5048008;28;20149;-82
2023/03/25 10:51:58;;;;;;;2.42;1.80;;;538.00;1715.20;;;;;;5052215;28;20039;-87
2023/03/25 10:54:35;;;;;;;3.08;1.75;;;538.00;1792.00;;;;;;5053029;28;20391;-82
2023/03/25 10:57:09;;;;;;;4.57;2.63;;;538.10;1766.40;;;;;;5050590;28;20090;-78
2023/03/25 11:00:05;;;;;;;4.28;2.75;;;538.30;1740.80;;;;;;5056226;28;20084;-82
2023/03/25 11:02:32;;;;;;;3.60;1.42;;;563.50;1792.00;;;;;;5117094;27;20089;-78
2023/03/25 11:05:03;;;;;;;3.17;1.92;;;563.40;1664.00;;;;;;5105163;28;20051;-79
2023/03/25 11:07:40;;;;;;;3.95;2.05;;;563.60;1664.00;;;;;;5111553;28;20024;-85
2023/03/25 11:10:28;;;;;;;2.22;1.50;;;563.80;1638.40;;;;;;5108244;28;20085;-84
2023/03/25 11:12:57;;;;;;;3.08;1.40;;;563.50;1638.40;;;;;;5106682;28;20481;-81
2023/03/25 11:15:32;;;;;;;4.65;1.60;;;563.30;1664.00;;;;;;5107850;28;20397;-86
2023/03/25 11:18:40;;;;;;;2.63;1.73;;;538.50;1664.00;;;;;;5105976;28;20103;-83
2023/03/25 11:21:12;;;;;;;4.50;2.17;;;563.50;1638.40;;;;;;5047343;28;20028;-89
2023/03/25 11:23:49;;;;;;;3.83;2.10;;;563.80;1587.20;;;;;;5055493;28;20574;-87
2023/03/25 11:26:19;;;;;;;5.72;2.08;;;564.10;1510.40;;;;;;5062969;28;20056;-83
2023/03/25 11:28:53;;;;;;;3.13;1.98;;;563.90;1536.00;;;;;;5059402;28;20033;-88
2023/03/25 11:31:24;;;;;;;2.80;1.60;;;563.70;1536.00;;;;;;5038043;28;20045;-83
2023/03/25 11:34:23;;;;;;;2.85;1.30;;;589.00;1484.80;;;;;;5056616;28;20142;-86
2023/03/25 11:37:05;;;;;;;3.45;1.65;;;589.00;1484.80;;;;;;4996719;28;20044;-83
2023/03/25 11:39:41;;;;;;;2.60;1.40;;;563.60;1510.40;;;;;;4996840;28;20101;-82
2023/03/25 11:42:15;;;;;;;;;;;538.50;1536.00;;;;;;5014304;28;20030;-83
2023/03/25 11:44:41;;;;;;;8.20;4.95;;;538.20;1612.80;;;;;;5013479;28;20330;-85
2023/03/25 11:47:09;;;;;;;5.22;3.70;;;537.90;1638.40;;;;;;5013991;28;20407;-85
2023/03/25 11:49:37;;;;;;;3.85;2.20;;;537.80;1664.00;;;;;;4997220;28;20038;-85
2023/03/25 11:52:21;;;;;;;4.00;2.10;;;512.90;1689.60;;;;;;5013794;28;20387;-89
2023/03/25 11:54:47;;;;;;;9.30;2.90;;;512.70;1689.60;;;;;;4988562;28;20030;-75
2023/03/25 11:57:18;;;;;;;5.60;2.35;;;512.70;1638.40;;;;;;5050974;28;20044;-75
2023/03/25 11:59:49;;;;;;;8.68;2.83;;;512.50;1689.60;;;;;;5073126;28;20119;-82
2023/03/25 12:02:36;;;;;;;3.22;1.50;;;512.20;1715.20;;;;;;5055470;28;20029;-77
2023/03/25 12:05:07;;;;;;;4.32;1.73;;;487.30;1664.00;;;;;;5063929;28;20067;-79
2023/03/25 12:07:48;;;;;;;4.72;1.55;;;487.20;1664.00;;;;;;5050003;28;20059;-79
2023/03/25 12:10:23;;;;;;;4.30;2.15;;;487.10;1664.00;;;;;;5052422;28;20025;-76
2023/03/25 12:13:12;;;;;;;7.25;2.10;;;487.00;1664.00;;;;;;5094078;28;20024;-79
2023/03/25 12:15:49;;;;;;;4.65;2.13;;;487.00;1664.00;;;;;;5114655;27;20034;-77
2023/03/25 12:18:40;;;;;;;2.75;1.60;;;487.20;1638.40;;;;;;5129340;27;20023;-79
2023/03/25 12:21:12;;;;;;;8.60;3.17;;;487.10;1689.60;;;;;;5118605;28;20020;-79
2023/03/25 12:23:47;;;;;;;19.40;9.77;;;487.20;1638.40;;;;;;5112842;28;20046;-82
2023/03/25 12:26:24;;;;;;;8.30;3.08;;;487.30;1638.40;;;;;;5110655;28;20019;-84
2023/03/25 12:28:56;;;;;;;3.65;1.63;;;487.30;1638.40;;;;;;5130214;27;20111;-77
2023/03/25 12:31:31;;;;;;;2.20;1.00;;;487.20;1587.20;;;;;;5134000;27;20054;-78
2023/03/25 12:33:56;;;;;;;3.88;2.17;;;487.00;1612.80;;;;;;5108325;27;20044;-78
2023/03/25 12:36:34;;;;;;;7.05;2.60;;;487.00;1638.40;;;;;;5108624;27;20111;-79